Time;durP1;ratioP1;P1;durP2;ratioP2;P2;SDS_P1;SDS_P2;PMS_P1;PMS_P2;Temp;Humidity;BMP_temperature;BMP_pressure;BME280_temperature;BME280_humidity;BME280_pressure;Samples;Min_cycle;Max_cycle;Signal;HPM_P1;HPM_P2
2022/09/04 07:49:53;;;;;;;25.05;20.13;;;;;;;28.12;47.14;101739.13;6006909;23;2181986;-67
2022/09/04 07:52:55;;;;;;;27.13;21.30;;;;;;;27.08;49.83;101744.56;6066039;23;20102;-66
2022/09/04 07:55:46;;;;;;;29.25;22.30;;;;;;;27.30;49.35;101747.25;5982099;23;20077;-67
2022/09/04 07:58:32;;;;;;;28.33;20.88;;;;;;;26.83;50.93;101747.38;5990838;23;20484;-69
2022/09/04 08:01:29;;;;;;;28.77;21.63;;;;;;;26.91;51.31;101744.41;6004317;23;20472;-66
2022/09/04 08:04:13;;;;;;;35.10;23.25;;;;;;;26.92;51.36;101748.81;5992628;23;20189;-65
2022/09/04 08:06:49;;;;;;;35.75;26.15;;;;;;;27.15;51.09;101758.56;6003015;23;20011;-70
2022/09/04 08:09:45;;;;;;;36.78;26.80;;;;;;;27.36;51.00;101763.06;5985396;23;20267;-66
2022/09/04 08:12:52;;;;;;;37.70;27.98;;;;;;;27.84;49.47;101758.28;5991441;23;20093;-66
2022/09/04 08:15:27;;;;;;;38.78;26.13;;;;;;;28.21;48.13;101754.84;5992811;23;20018;-66
2022/09/04 08:17:52;;;;;;;35.70;26.73;;;;;;;27.90;49.65;101767.84;5953510;23;20010;-66
2022/09/04 08:20:36;;;;;;;39.00;27.98;;;;;;;27.49;50.13;101764.28;5997733;23;20075;-66
2022/09/04 08:23:29;;;;;;;41.35;30.77;;;;;;;27.31;50.88;101767.72;5991660;23;20007;-66
2022/09/04 08:25:57;;;;;;;37.92;28.98;;;;;;;27.84;49.73;101770.78;5982661;23;20320;-65
2022/09/04 08:28:52;;;;;;;36.15;27.25;;;;;;;28.18;48.60;101770.16;5988113;23;20014;-65
2022/09/04 08:31:23;;;;;;;39.90;30.40;;;;;;;28.16;48.60;101778.31;6001102;23;20018;-66
2022/09/04 08:34:07;;;;;;;42.13;32.25;;;;;;;27.47;51.49;101774.16;5970779;23;20030;-66
2022/09/04 08:36:58;;;;;;;40.72;29.90;;;;;;;27.84;50.42;101778.84;5999836;23;20135;-67
2022/09/04 08:39:37;;;;;;;48.17;33.83;;;;;;;27.26;50.81;101778.66;5987896;23;20022;-67
2022/09/04 08:42:36;;;;;;;41.75;30.90;;;;;;;28.00;50.20;101785.25;5999411;23;20700;-66
2022/09/04 08:45:11;;;;;;;42.13;31.33;;;;;;;28.79;47.24;101788.81;5980366;23;20473;-66
2022/09/04 08:48:17;;;;;;;43.58;31.95;;;;;;;28.32;49.14;101782.94;6021592;23;20446;-66
2022/09/04 08:51:13;;;;;;;43.65;30.73;;;;;;;28.63;47.86;101783.25;5988251;23;20497;-66
2022/09/04 08:54:13;;;;;;;40.13;30.63;;;;;;;28.78;46.44;101787.94;5994564;23;20025;-66
2022/09/04 08:57:27;;;;;;;46.22;33.47;;;;;;;28.24;48.77;101788.66;5991771;23;20018;-66
2022/09/04 09:00:14;;;;;;;43.85;33.35;;;;;;;28.06;49.63;101782.28;5988309;23;20753;-66
2022/09/04 09:03:13;;;;;;;41.25;31.42;;;;;;;28.27;48.45;101779.63;5988334;23;20010;-66
2022/09/04 09:06:05;;;;;;;39.28;30.05;;;;;;;28.72;48.16;101790.91;5993709;23;20046;-65
2022/09/04 09:08:58;;;;;;;39.58;28.63;;;;;;;29.17;46.14;101793.16;5986104;23;20852;-66
2022/09/04 09:11:24;;;;;;;39.92;30.60;;;;;;;28.97;46.81;101791.47;5994154;23;20011;-66
2022/09/04 09:14:17;;;;;;;42.83;29.83;;;;;;;29.16;47.15;101793.22;5980537;23;20015;-66
2022/09/04 09:16:59;;;;;;;34.95;26.30;;;;;;;29.56;45.45;101795.72;5994449;23;20091;-66
2022/09/04 09:20:05;;;;;;;43.58;31.52;;;;;;;29.07;47.25;101802.63;6020413;23;20015;-66
2022/09/04 09:23:09;;;;;;;39.55;29.30;;;;;;;29.59;45.34;101798.22;5986843;23;20015;-66
2022/09/04 09:25:56;;;;;;;39.25;29.23;;;;;;;29.75;45.47;101801.00;5989064;23;20537;-66
2022/09/04 09:28:59;;;;;;;42.30;30.52;;;;;;;29.85;45.56;101804.94;5996987;23;20398;-65
2022/09/04 09:31:46;;;;;;;40.55;30.33;;;;;;;29.36;46.21;101796.72;5991959;23;20011;-66
2022/09/04 09:34:30;;;;;;;43.70;31.15;;;;;;;29.20;46.46;101790.34;5986145;23;20030;-66
2022/09/04 09:37:20;;;;;;;41.83;31.58;;;;;;;29.21;46.39;101800.16;5951264;23;20016;-66
2022/09/04 09:40:17;;;;;;;39.65;28.95;;;;;;;29.87;44.50;101800.38;5948974;23;20020;-65
2022/09/04 09:43:08;;;;;;;39.33;27.17;;;;;;;30.17;44.08;101797.91;5965297;23;20022;-66
2022/09/04 09:45:49;;;;;;;40.08;29.20;;;;;;;30.11;43.68;101801.78;5956593;23;20515;-66
2022/09/04 09:48:31;;;;;;;41.90;28.77;;;;;;;30.15;43.89;101797.09;5952914;23;20016;-67
2022/09/04 09:51:21;;;;;;;41.10;28.00;;;;;;;29.50;44.02;101801.41;5961415;23;20034;-67
2022/09/04 09:54:21;;;;;;;25.40;19.10;;;;;;;30.16;42.90;101799.72;5960271;23;20095;-67
2022/09/04 09:57:25;;;;;;;17.20;13.85;;;;;;;30.77;39.95;101790.97;5982515;23;20015;-67
2022/09/04 10:00:03;;;;;;;29.23;22.10;;;;;;;29.80;43.77;101794.44;5953687;23;20043;-66
2022/09/04 10:02:50;;;;;;;26.40;17.83;;;;;;;30.08;42.56;101799.25;5961315;23;20012;-67
2022/09/04 10:05:37;;;;;;;30.05;22.42;;;;;;;30.29;42.02;101790.97;5964465;23;20012;-66
2022/09/04 10:08:27;;;;;;;28.15;18.85;;;;;;;30.58;40.76;101799.22;5959034;23;20155;-66
2022/09/04 10:11:15;;;;;;;25.67;17.13;;;;;;;30.70;40.60;101799.47;5958316;23;20079;-66
2022/09/04 10:13:55;;;;;;;23.63;17.90;;;;;;;30.53;41.13;101798.59;5957850;23;20036;-66
2022/09/04 10:16:27;;;;;;;23.38;16.67;;;;;;;30.68;39.47;101798.72;5957165;23;20083;-66
2022/09/04 10:19:30;;;;;;;28.05;20.00;;;;;;;29.79;42.46;101800.75;5955210;23;20107;-66
2022/09/04 10:22:09;;;;;;;27.83;20.50;;;;;;;30.03;41.55;101800.44;5948560;23;20019;-66
2022/09/04 10:24:52;;;;;;;28.65;20.92;;;;;;;30.09;43.91;101802.81;5957789;23;20304;-66
2022/09/04 10:27:43;;;;;;;25.95;18.90;;;;;;;30.22;42.14;101810.13;5969083;23;20016;-66
2022/09/04 10:30:21;;;;;;;30.05;20.35;;;;;;;30.68;41.11;101798.72;5958258;23;20522;-66
2022/09/04 10:33:03;;;;;;;29.23;19.13;;;;;;;30.54;42.10;101807.56;5963500;23;20246;-65
2022/09/04 10:35:59;;;;;;;25.63;18.48;;;;;;;30.71;41.50;101798.53;5962154;23;20016;-65
2022/09/04 10:40:34;;;;;;;24.80;18.50;;;;;;;31.26;38.99;101799.84;5969204;23;20013;-67
2022/09/04 10:41:31;;;;;;;25.67;18.07;;;;;;;31.21;39.41;101803.75;5966867;23;20107;-67
2022/09/04 10:44:30;;;;;;;21.88;16.35;;;;;;;31.20;39.44;101802.03;5951982;23;20212;-67
2022/09/04 10:47:01;;;;;;;25.45;18.60;;;;;;;29.93;43.81;101808.13;5965867;23;20026;-68
2022/09/04 10:49:56;;;;;;;20.95;15.68;;;;;;;30.29;42.16;101804.44;5956991;23;20023;-66
2022/09/04 10:52:53;;;;;;;23.92;16.20;;;;;;;30.27;42.80;101809.00;5988065;23;20989;-67
2022/09/04 10:55:26;;;;;;;32.00;20.25;;;;;;;30.03;43.17;101816.56;5957519;23;20022;-68
2022/09/04 10:58:28;;;;;;;25.63;17.95;;;;;;;30.42;41.95;101808.19;5950122;23;20015;-66
2022/09/04 11:01:36;;;;;;;24.17;18.13;;;;;;;30.16;42.22;101805.09;5960313;23;20611;-67
2022/09/04 11:04:46;;;;;;;25.70;17.77;;;;;;;29.91;42.53;101806.44;5954327;23;20413;-67
2022/09/04 11:07:50;;;;;;;17.50;12.57;;;;;;;30.48;40.99;101813.25;5963692;23;20027;-66
2022/09/04 11:10:15;;;;;;;;;;;;;;;30.69;41.99;101809.38;5967721;23;20439;-67
2022/09/04 11:13:09;;;;;;;15.93;11.07;;;;;;;30.28;42.50;101811.63;5957577;23;19936;-66
2022/09/04 11:15:46;;;;;;;16.55;11.98;;;;;;;29.72;43.29;101812.78;5963898;23;20445;-66
2022/09/04 11:18:30;;;;;;;19.52;14.02;;;;;;;29.54;43.36;101808.34;5961187;23;20495;-66
2022/09/04 11:21:41;;;;;;;17.52;12.20;;;;;;;29.57;44.97;101810.00;5960845;23;20386;-66
2022/09/04 11:24:32;;;;;;;17.40;12.32;;;;;;;29.88;43.49;101806.63;5949853;23;20003;-66
2022/09/04 11:27:19;;;;;;;23.30;10.73;;;;;;;30.04;44.22;101811.13;5962081;23;20463;-66
2022/09/04 11:30:08;;;;;;;14.50;9.57;;;;;;;29.83;41.58;101806.81;5955295;23;20083;-66
2022/09/04 11:32:51;;;;;;;14.68;9.50;;;;;;;29.58;42.37;101795.63;5974923;23;20017;-66
2022/09/04 11:35:47;;;;;;;13.80;10.32;;;;;;;29.65;41.70;101800.59;5954013;23;20099;-67
2022/09/04 11:38:42;;;;;;;12.88;9.63;;;;;;;29.92;42.16;101809.09;5958021;23;20040;-67
2022/09/04 11:41:32;;;;;;;13.10;9.23;;;;;;;30.38;40.65;101803.91;5965418;23;20012;-66
2022/09/04 11:44:25;;;;;;;11.38;7.82;;;;;;;30.60;39.83;101799.13;5953208;23;20099;-67
2022/09/04 11:47:24;;;;;;;11.17;7.43;;;;;;;31.16;37.84;101806.72;5968786;23;20008;-66
2022/09/04 11:50:13;;;;;;;9.80;6.90;;;;;;;31.11;37.64;101803.41;5918649;23;20287;-66
2022/09/04 11:53:10;;;;;;;13.25;7.57;;;;;;;30.80;40.08;101803.41;5961879;23;20022;-66
2022/09/04 11:55:51;;;;;;;13.98;8.23;;;;;;;30.77;38.85;101803.56;5959354;23;20052;-65
2022/09/04 11:59:03;;;;;;;18.33;8.25;;;;;;;31.02;39.11;101798.53;5969807;23;20016;-65
2022/09/04 12:02:06;;;;;;;10.63;6.07;;;;;;;31.52;37.52;101814.47;5953213;23;20039;-66
2022/09/04 12:04:53;;;;;;;8.53;6.10;;;;;;;31.46;37.07;101811.28;5962888;23;20011;-66
2022/09/04 12:07:35;;;;;;;9.57;7.05;;;;;;;31.93;35.82;101803.91;5956865;23;20015;-67
2022/09/04 12:10:22;;;;;;;22.92;16.30;;;;;;;31.56;39.20;101807.06;5956888;23;20038;-67
2022/09/04 12:13:18;;;;;;;22.83;17.17;;;;;;;31.61;40.43;101810.38;5979272;23;20024;-65
2022/09/04 12:16:11;;;;;;;15.18;11.10;;;;;;;31.74;39.68;101808.69;5955152;23;20079;-66
2022/09/04 12:19:13;;;;;;;12.85;9.07;;;;;;;31.88;36.95;101815.94;5954582;23;20094;-65
2022/09/04 12:22:14;;;;;;;17.98;13.15;;;;;;;31.69;39.91;101824.28;5956970;23;20047;-66
2022/09/04 12:24:57;;;;;;;12.02;7.82;;;;;;;31.82;38.25;101827.97;5959081;23;20012;-68
2022/09/04 12:27:50;;;;;;;21.15;17.08;;;;;;;32.02;38.35;101821.38;5965577;23;20103;-67
2022/09/04 12:31:01;;;;;;;26.15;18.20;;;;;;;31.64;40.07;101826.38;5951623;23;20566;-67
2022/09/04 12:33:41;;;;;;;24.75;18.92;;;;;;;31.30;42.17;101825.63;5875161;24;20714;-67
2022/09/04 12:36:32;;;;;;;24.23;18.33;;;;;;;31.22;41.52;101827.94;5865324;24;20216;-66
2022/09/04 12:39:18;;;;;;;32.90;24.00;;;;;;;30.72;42.29;101825.38;5938841;23;20539;-67
2022/09/04 12:42:19;;;;;;;27.52;20.23;;;;;;;30.79;41.96;101823.22;5960939;23;20016;-67
2022/09/04 12:44:54;;;;;;;21.77;17.60;;;;;;;30.68;43.96;101826.47;5913967;23;20019;-67
2022/09/04 12:47:57;;;;;;;23.48;18.70;;;;;;;30.73;43.94;101831.63;5961900;23;20075;-66
2022/09/04 12:50:34;;;;;;;26.67;19.40;;;;;;;30.41;44.59;101827.97;5963143;23;20023;-67
2022/09/04 12:53:43;;;;;;;26.08;18.88;;;;;;;30.61;42.92;101822.41;5963408;23;20011;-68
2022/09/04 12:56:21;;;;;;;26.08;19.73;;;;;;;29.83;45.32;101834.59;5914866;23;20447;-67
2022/09/04 12:59:06;;;;;;;27.40;20.48;;;;;;;29.94;43.85;101841.28;5968376;23;20111;-67
2022/09/04 13:01:48;;;;;;;24.92;16.85;;;;;;;30.63;41.79;101832.13;5957354;23;20871;-67
2022/09/04 13:04:29;;;;;;;24.13;16.80;;;;;;;30.89;41.14;101837.88;5964488;23;20495;-67
2022/09/04 13:07:37;;;;;;;21.25;16.38;;;;;;;30.42;42.95;101843.19;5961579;23;20043;-67
2022/09/04 13:10:31;;;;;;;19.50;13.68;;;;;;;30.99;42.09;101839.09;5962179;23;20106;-67
2022/09/04 13:13:12;;;;;;;17.55;12.82;;;;;;;31.26;40.42;101839.38;5957386;23;20045;-67
2022/09/04 13:15:58;;;;;;;21.75;13.48;;;;;;;31.22;42.70;101838.69;5959237;23;20396;-67
2022/09/04 13:18:43;;;;;;;18.45;13.30;;;;;;;31.59;39.64;101839.28;5964627;23;20022;-66
2022/09/04 13:21:21;;;;;;;21.77;14.48;;;;;;;30.87;44.15;101832.56;5964795;23;20015;-68
2022/09/04 13:24:07;;;;;;;18.77;11.63;;;;;;;31.09;42.47;101842.19;5959219;23;20036;-68
2022/09/04 13:26:50;;;;;;;14.90;10.63;;;;;;;31.38;42.47;101835.97;5962603;23;20016;-66
2022/09/04 13:29:22;;;;;;;18.05;12.52;;;;;;;31.62;40.08;101839.94;5964936;23;20405;-67
2022/09/04 13:32:09;;;;;;;13.88;9.30;;;;;;;29.70;42.36;101835.31;5954680;23;20049;-67
2022/09/04 13:34:57;;;;;;;8.88;5.88;;;;;;;30.60;37.45;101829.63;5967984;23;20491;-67
2022/09/04 13:37:34;;;;;;;7.28;5.53;;;;;;;31.04;36.32;101832.50;5952154;23;20411;-67
2022/09/04 13:40:00;;;;;;;6.53;4.93;;;;;;;31.01;35.97;101835.38;5953630;23;20003;-66
2022/09/04 13:42:33;;;;;;;8.50;4.70;;;;;;;31.36;35.81;101837.88;5960974;23;20012;-66
2022/09/04 13:45:05;;;;;;;7.18;5.40;;;;;;;30.89;37.24;101833.38;5955099;23;21085;-68
2022/09/04 13:48:00;;;;;;;9.98;6.28;;;;;;;30.15;38.26;101832.06;5964752;23;20039;-68
2022/09/04 13:50:45;;;;;;;8.85;5.43;;;;;;;30.98;36.06;101830.13;5969254;23;20038;-67
2022/09/04 13:53:18;;;;;;;12.40;8.50;;;;;;;31.31;37.95;101840.84;5959030;23;20034;-66
2022/09/04 13:55:56;;;;;;;16.33;12.80;;;;;;;31.17;40.11;101831.84;5949956;23;20087;-67
2022/09/04 13:58:32;;;;;;;14.35;11.20;;;;;;;31.08;40.56;101844.00;5966272;23;20525;-67
2022/09/04 14:01:00;;;;;;;19.45;11.57;;;;;;;30.40;43.94;101837.00;5959074;23;20420;-67
2022/09/04 14:03:49;;;;;;;16.65;11.23;;;;;;;30.80;41.80;101843.81;5969656;23;20012;-66
2022/09/04 14:06:18;;;;;;;14.77;11.23;;;;;;;30.76;42.68;101843.09;5958879;23;20428;-68
2022/09/04 14:08:46;;;;;;;15.52;11.80;;;;;;;30.05;42.69;101838.88;5983008;23;20008;-66
2022/09/04 14:11:59;;;;;;;13.40;10.57;;;;;;;30.57;42.42;101840.53;5964274;23;20007;-67
2022/09/04 14:14:36;;;;;;;13.30;10.38;;;;;;;30.81;42.00;101832.06;5937160;23;20581;-69
2022/09/04 14:17:06;;;;;;;14.00;9.40;;;;;;;30.99;41.72;101839.97;5953522;23;20022;-66
2022/09/04 14:19:53;;;;;;;13.52;10.75;;;;;;;30.87;40.91;101843.34;5951823;23;20011;-67
2022/09/04 14:22:24;;;;;;;10.70;9.20;;;;;;;30.84;41.99;101835.47;5965062;23;20015;-67
2022/09/04 14:25:11;;;;;;;15.40;10.15;;;;;;;30.71;42.23;101836.22;5951523;23;20516;-67
2022/09/04 14:27:57;;;;;;;15.35;10.18;;;;;;;30.59;43.38;101844.03;5963490;23;20012;-66
2022/09/04 14:30:23;;;;;;;14.63;10.52;;;;;;;30.71;41.30;101829.00;5947388;23;20016;-67
2022/09/04 14:33:26;;;;;;;14.15;8.60;;;;;;;30.95;41.62;101830.31;5962163;23;20060;-67
2022/09/04 14:36:20;;;;;;;11.95;9.25;;;;;;;31.01;38.95;101827.28;5952386;23;20026;-66
2022/09/04 14:39:05;;;;;;;13.85;11.52;;;;;;;30.61;41.02;101827.81;5965751;23;20445;-67
2022/09/04 14:41:45;;;;;;;13.68;9.07;;;;;;;31.06;40.67;101821.66;5966265;23;20521;-67
2022/09/04 14:44:26;;;;;;;13.55;8.45;;;;;;;31.31;39.91;101821.97;5953309;23;20012;-67
2022/09/04 14:47:10;;;;;;;12.38;9.38;;;;;;;31.43;39.33;101818.56;5967088;23;20526;-67
2022/09/04 14:50:00;;;;;;;12.85;10.25;;;;;;;31.35;37.99;101820.84;5952209;23;20443;-67
2022/09/04 14:52:32;;;;;;;12.57;9.57;;;;;;;31.40;39.21;101820.59;5970435;23;20012;-66
2022/09/04 14:54:59;;;;;;;9.95;7.63;;;;;;;31.54;38.64;101819.75;5961684;23;20019;-65
2022/09/04 14:57:54;;;;;;;13.27;8.27;;;;;;;31.57;36.91;101822.28;5951067;23;20015;-67
2022/09/04 15:00:21;;;;;;;14.85;9.52;;;;;;;31.01;39.89;101818.34;5959362;23;20106;-65
2022/09/04 15:03:16;;;;;;;14.63;10.50;;;;;;;31.16;39.02;101820.19;5969863;23;20530;-66
2022/09/04 15:05:55;;;;;;;12.98;9.40;;;;;;;31.29;39.10;101829.28;5960174;23;20408;-67
2022/09/04 15:08:34;;;;;;;14.80;11.07;;;;;;;30.95;39.96;101816.88;5963578;23;20550;-67
2022/09/04 15:11:07;;;;;;;15.65;10.80;;;;;;;30.65;41.25;101823.97;5958001;23;20343;-66
2022/09/04 15:13:48;;;;;;;18.00;12.25;;;;;;;30.26;42.85;101824.28;5961173;23;20150;-66
2022/09/04 15:16:29;;;;;;;13.55;9.95;;;;;;;30.24;43.30;101824.38;5963722;23;20670;-66
2022/09/04 15:19:25;;;;;;;13.15;9.93;;;;;;;30.37;42.51;101823.72;5957675;23;20012;-66
2022/09/04 15:22:08;;;;;;;19.10;12.30;;;;;;;30.29;42.12;101820.56;5938966;23;20071;-66
2022/09/04 15:24:45;;;;;;;15.38;10.20;;;;;;;30.13;42.45;101826.75;5959651;23;20149;-66
2022/09/04 15:27:16;;;;;;;16.75;12.23;;;;;;;29.75;43.59;101820.69;5960234;23;20012;-67
2022/09/04 15:29:51;;;;;;;17.00;12.13;;;;;;;29.69;45.21;101830.88;5966625;23;20094;-65
2022/09/04 15:32:41;;;;;;;15.32;11.73;;;;;;;29.52;45.59;101820.97;5956020;23;20019;-66
2022/09/04 15:35:14;;;;;;;16.13;12.57;;;;;;;29.74;43.88;101818.94;5958944;23;20571;-66
2022/09/04 15:38:16;;;;;;;17.80;12.88;;;;;;;29.65;43.95;101816.72;5949951;23;20108;-66
2022/09/04 15:41:02;;;;;;;21.63;14.20;;;;;;;29.30;44.67;101817.59;5958350;23;20513;-67
2022/09/04 15:43:38;;;;;;;19.10;14.15;;;;;;;29.14;44.89;101817.50;5985343;23;20079;-65
2022/09/04 15:46:31;;;;;;;19.50;14.52;;;;;;;29.30;44.78;101817.59;5962993;23;20314;-67
2022/09/04 15:49:35;;;;;;;18.60;14.43;;;;;;;29.20;45.58;101814.50;5963945;23;20528;-66
2022/09/04 15:52:22;;;;;;;;;;;;;;;29.17;46.58;101813.78;5954895;23;20052;-65
2022/09/04 15:55:25;;;;;;;19.63;14.00;;;;;;;29.22;45.52;101817.09;5956811;23;19914;-66
2022/09/04 15:57:58;;;;;;;16.85;12.25;;;;;;;29.58;45.45;101814.44;5929098;23;20019;-67
2022/09/04 16:00:26;;;;;;;19.15;12.73;;;;;;;29.45;45.01;101814.19;5965339;23;20359;-66
2022/09/04 16:03:23;;;;;;;14.10;11.82;;;;;;;29.60;45.29;101809.84;5966480;23;20012;-66
2022/09/04 16:05:56;;;;;;;18.48;13.75;;;;;;;29.47;44.04;101814.97;5961765;23;20024;-64
2022/09/04 16:08:27;;;;;;;18.53;13.30;;;;;;;29.16;44.98;101818.28;5967778;23;20011;-67
2022/09/04 16:11:00;;;;;;;18.65;13.50;;;;;;;29.04;45.02;101809.00;5965713;23;20425;-67
2022/09/04 16:13:25;;;;;;;18.60;14.40;;;;;;;29.03;44.79;101809.09;5962714;23;20011;-65
2022/09/04 16:15:59;;;;;;;19.77;13.98;;;;;;;29.35;44.64;101810.22;5963676;23;20030;-65
2022/09/04 16:18:57;;;;;;;15.98;12.32;;;;;;;29.48;44.19;101815.84;5978701;23;20332;-65
2022/09/04 16:21:58;;;;;;;13.40;10.80;;;;;;;29.58;44.67;101812.59;5937910;23;20030;-64
2022/09/04 16:24:52;;;;;;;18.23;13.35;;;;;;;29.47;44.20;101812.28;5969665;23;20340;-65
2022/09/04 16:27:21;;;;;;;;;;;;;;;29.48;44.26;101803.28;5957796;23;20022;-66
2022/09/04 16:29:51;;;;;;;18.20;13.18;;;;;;;29.18;44.85;101808.34;5958087;23;20863;-66
2022/09/04 16:32:23;;;;;;;14.40;10.45;;;;;;;29.48;44.39;101805.09;5960181;23;20083;-65
2022/09/04 16:34:54;;;;;;;15.13;11.10;;;;;;;29.46;43.72;101807.84;5948269;23;20063;-65
2022/09/04 16:37:33;;;;;;;15.73;12.30;;;;;;;29.62;43.28;101803.44;5967128;23;20011;-67
2022/09/04 16:40:13;;;;;;;14.25;10.32;;;;;;;29.43;42.16;101806.22;5955375;23;20011;-65
2022/09/04 16:42:46;;;;;;;16.13;11.60;;;;;;;29.14;45.19;101803.19;5962232;23;20453;-65
2022/09/04 16:45:33;;;;;;;15.27;11.80;;;;;;;29.29;44.02;101813.16;5957198;23;20020;-66
2022/09/04 16:48:14;;;;;;;15.73;11.45;;;;;;;29.25;44.68;101809.78;5951866;23;20007;-67
2022/09/04 16:51:04;;;;;;;14.85;11.25;;;;;;;29.13;43.97;101815.75;5954926;23;20107;-66
2022/09/04 16:53:50;;;;;;;12.85;9.48;;;;;;;28.99;45.42;101813.75;5918114;23;20039;-65
2022/09/04 16:56:34;;;;;;;15.75;12.80;;;;;;;28.71;44.90;101815.97;5958906;23;20321;-64
2022/09/04 16:59:39;;;;;;;12.65;10.02;;;;;;;28.82;45.21;101816.38;5967838;23;20083;-68
2022/09/04 17:02:22;;;;;;;18.25;12.95;;;;;;;28.40;46.28;101821.91;5953303;23;20019;-67
2022/09/04 17:04:56;;;;;;;20.25;13.80;;;;;;;28.19;47.29;101828.22;5970192;23;20008;-67
2022/09/04 17:07:33;;;;;;;18.23;13.30;;;;;;;28.10;48.02;101813.41;5960555;23;20012;-67
2022/09/04 17:10:35;;;;;;;16.30;13.27;;;;;;;28.22;47.44;101812.00;5953114;23;20022;-65
2022/09/04 17:13:32;;;;;;;18.70;13.63;;;;;;;28.28;47.32;101819.78;5966127;23;20011;-65
2022/09/04 17:16:22;;;;;;;18.52;14.73;;;;;;;27.19;51.33;101820.00;5957132;23;20513;-66
2022/09/04 17:18:52;;;;;;;20.77;16.88;;;;;;;27.39;50.12;101822.69;5970565;23;20452;-66
2022/09/04 17:24:22;;;;;;;20.95;16.45;;;;;;;27.70;49.83;101819.63;5967651;23;20026;-65
2022/09/04 17:27:12;;;;;;;25.83;18.35;;;;;;;27.37;49.59;101821.91;5956630;23;20015;-65
2022/09/04 17:29:50;;;;;;;20.85;16.52;;;;;;;27.54;49.46;101829.25;5989560;23;20011;-65
2022/09/04 17:32:28;;;;;;;20.65;16.80;;;;;;;27.21;51.43;101830.59;5983300;23;20011;-66
2022/09/04 17:35:24;;;;;;;21.20;14.45;;;;;;;27.16;51.88;101833.47;5964704;23;20003;-65
2022/09/04 17:37:49;;;;;;;19.52;13.50;;;;;;;27.16;51.86;101835.28;5952537;23;20054;-65
2022/09/04 17:40:26;;;;;;;18.75;13.02;;;;;;;27.09;51.89;101831.97;5965095;23;20527;-65
2022/09/04 17:43:06;;;;;;;16.88;13.43;;;;;;;26.97;52.17;101838.69;5989718;23;20015;-65
2022/09/04 17:45:41;;;;;;;18.25;13.93;;;;;;;26.56;54.24;101842.06;5956981;23;20026;-66
2022/09/04 17:48:45;;;;;;;19.73;14.52;;;;;;;26.37;54.25;101851.69;5957404;23;20082;-66
2022/09/04 17:51:20;;;;;;;16.58;14.23;;;;;;;26.30;54.64;101853.72;5846537;24;20021;-66
2022/09/04 17:53:52;;;;;;;20.45;13.95;;;;;;;26.19;55.22;101848.75;5844175;24;20017;-65
2022/09/04 17:56:41;;;;;;;17.38;13.40;;;;;;;26.12;55.42;101851.69;5891514;23;20782;-66
2022/09/04 17:59:33;;;;;;;19.58;14.18;;;;;;;25.99;55.42;101848.56;5943143;24;20389;-66
2022/09/04 18:02:28;;;;;;;20.92;14.65;;;;;;;25.76;56.30;101862.72;5919675;24;20103;-65
2022/09/04 18:05:02;;;;;;;18.50;13.68;;;;;;;25.70;56.63;101862.06;5931644;24;20012;-66
2022/09/04 18:08:01;;;;;;;17.45;13.60;;;;;;;25.50;57.48;101860.00;5929620;24;20446;-65
2022/09/04 18:10:36;;;;;;;16.95;13.13;;;;;;;25.44;57.19;101860.22;5913175;24;20444;-67
2022/09/04 18:13:36;;;;;;;20.48;14.85;;;;;;;25.14;58.29;101869.19;5934386;24;20016;-66
2022/09/04 18:16:19;;;;;;;18.23;13.70;;;;;;;25.16;58.01;101872.69;5914080;24;20016;-66
2022/09/04 18:18:50;;;;;;;20.02;15.25;;;;;;;25.03;58.29;101867.75;5931215;23;20011;-66
2022/09/04 18:21:25;;;;;;;22.05;15.50;;;;;;;24.90;58.97;101871.72;5938170;24;20012;-66
2022/09/04 18:24:11;;;;;;;22.60;16.33;;;;;;;24.88;59.11;101870.88;5923300;23;20601;-66
2022/09/04 18:26:54;;;;;;;20.20;16.23;;;;;;;24.62;59.96;101876.09;5938392;24;20130;-65
2022/09/04 18:29:34;;;;;;;20.50;15.55;;;;;;;24.61;59.99;101879.66;5936007;24;20023;-65
2022/09/04 18:32:33;;;;;;;21.02;16.42;;;;;;;24.62;59.85;101886.75;5930150;23;20075;-66
2022/09/04 18:35:07;;;;;;;22.25;17.85;;;;;;;24.46;60.08;101894.28;5911309;24;20036;-66
2022/09/04 18:37:54;;;;;;;24.67;18.05;;;;;;;24.41;60.51;101890.88;5923221;23;20011;-66
2022/09/04 18:41:04;;;;;;;21.83;16.90;;;;;;;24.36;60.57;101890.16;5912162;24;20015;-66
2022/09/04 18:44:01;;;;;;;25.73;18.85;;;;;;;24.10;61.18;101897.91;5911482;24;20012;-66
2022/09/04 18:46:28;;;;;;;28.20;20.38;;;;;;;23.89;62.04;101906.50;5873126;24;20238;-67
2022/09/04 18:49:10;;;;;;;27.65;19.30;;;;;;;23.97;61.92;101910.69;5923918;23;20012;-64
2022/09/04 18:51:49;;;;;;;26.25;20.10;;;;;;;23.91;62.03;101902.84;5963467;23;20644;-65
2022/09/04 18:54:40;;;;;;;26.30;19.23;;;;;;;23.93;61.75;101906.38;5956927;23;20059;-63
2022/09/04 18:57:31;;;;;;;27.40;20.13;;;;;;;23.82;62.34;101905.75;5951365;23;20011;-66
2022/09/04 19:00:11;;;;;;;28.00;20.63;;;;;;;23.80;62.36;101904.91;5945113;23;20393;-64
2022/09/04 19:03:06;;;;;;;26.80;19.15;;;;;;;23.78;62.21;101904.97;5968118;23;20278;-65
2022/09/04 19:05:36;;;;;;;25.90;19.90;;;;;;;23.71;62.26;101910.50;5965647;23;20296;-66
2022/09/04 19:08:08;;;;;;;26.13;20.92;;;;;;;23.55;62.64;101914.41;5929272;23;20337;-66
2022/09/04 19:10:50;;;;;;;27.02;19.95;;;;;;;23.50;62.91;101919.84;5982188;23;20329;-66
2022/09/04 19:13:30;;;;;;;25.10;18.60;;;;;;;23.52;62.86;101922.47;5955831;23;20619;-66
2022/09/04 19:16:09;;;;;;;28.30;21.35;;;;;;;23.33;63.12;101927.31;5960077;23;20103;-65
2022/09/04 19:18:42;;;;;;;26.98;19.35;;;;;;;23.37;63.79;101929.88;5948395;23;20016;-66
2022/09/04 19:21:07;;;;;;;26.37;19.67;;;;;;;23.35;63.39;101934.38;5964562;23;20016;-66
2022/09/04 19:23:40;;;;;;;31.05;21.70;;;;;;;23.21;64.04;101928.47;5960931;23;20300;-65
2022/09/04 19:26:38;;;;;;;29.50;19.23;;;;;;;23.32;63.80;101921.13;5941288;23;20011;-65
2022/09/04 19:29:18;;;;;;;28.65;21.05;;;;;;;23.11;64.61;101924.28;5941659;23;20083;-66
2022/09/04 19:31:56;;;;;;;26.15;19.98;;;;;;;23.28;63.50;101929.22;5942803;23;20391;-67
2022/09/04 19:34:29;;;;;;;26.95;19.33;;;;;;;23.19;63.83;101927.63;5964134;23;20546;-66
2022/09/04 19:36:59;;;;;;;27.42;21.48;;;;;;;23.06;64.42;101931.44;5961067;23;20019;-66
2022/09/04 19:39:36;;;;;;;27.77;20.35;;;;;;;23.05;64.38;101932.38;5963936;23;20023;-65
2022/09/04 19:42:28;;;;;;;30.67;22.10;;;;;;;22.92;64.42;101933.56;5970422;23;20369;-66
2022/09/04 19:45:01;;;;;;;26.38;20.08;;;;;;;23.05;64.59;101930.56;5952812;23;20039;-67
2022/09/04 19:47:59;;;;;;;28.00;20.90;;;;;;;22.94;64.42;101934.38;5950572;23;20015;-66
2022/09/04 19:50:45;;;;;;;28.95;21.70;;;;;;;22.67;65.07;101939.34;5966634;23;20071;-67
2022/09/04 19:53:28;;;;;;;30.25;22.13;;;;;;;22.60;65.77;101929.72;5961008;23;20007;-66
2022/09/04 19:56:10;;;;;;;31.25;22.30;;;;;;;22.61;65.87;101930.59;5941117;23;20068;-67
2022/09/04 19:58:45;;;;;;;28.65;21.27;;;;;;;22.74;65.49;101940.13;5967978;23;20023;-66
2022/09/04 20:01:18;;;;;;;28.60;20.88;;;;;;;22.83;65.04;101928.41;5963136;23;20041;-67
2022/09/04 20:03:57;;;;;;;29.30;21.70;;;;;;;22.75;64.80;101933.03;5961998;23;20659;-66
2022/09/04 20:06:44;;;;;;;28.90;21.10;;;;;;;22.74;65.17;101941.91;5961916;23;20561;-66
2022/09/04 20:09:27;;;;;;;30.67;22.17;;;;;;;22.55;65.61;101936.03;5952594;23;20034;-66
2022/09/04 20:12:12;;;;;;;31.38;22.60;;;;;;;22.42;66.06;101943.38;5961074;23;20432;-67
2022/09/04 20:15:13;;;;;;;36.50;24.35;;;;;;;22.24;67.04;101943.69;5960122;23;20008;-66
2022/09/04 20:18:04;;;;;;;34.92;23.63;;;;;;;22.14;67.21;101937.66;5967283;23;20022;-66
2022/09/04 20:20:55;;;;;;;33.30;23.08;;;;;;;22.35;67.03;101933.75;5966277;23;20015;-67
2022/09/04 20:23:46;;;;;;;35.35;24.13;;;;;;;22.45;66.81;101937.09;5965857;23;20411;-66
2022/09/04 20:26:27;;;;;;;34.20;24.75;;;;;;;22.46;66.15;101936.19;5925601;23;20188;-65